createdAt,value
2023-04-29T00:41:32.058Z,100.00
2023-04-29T00:46:24.231Z,100.00
2023-04-29T00:51:18.241Z,100.00
2023-04-29T00:56:11.357Z,100.00
2023-04-29T01:17:15.580Z,100.00
2023-04-29T01:22:07.313Z,100.00
2023-04-29T01:27:23.869Z,100.00
2023-04-29T01:32:29.807Z,100.00
2023-04-29T01:37:41.589Z,100.00
2023-04-29T02:03:47.325Z,100.00
2023-04-29T02:08:39.101Z,100.00
2023-04-29T02:13:30.770Z,100.00
2023-04-29T02:18:22.460Z,100.00
2023-04-29T02:23:14.162Z,100.00
2023-04-29T02:28:05.877Z,100.00
2023-04-29T02:32:57.744Z,100.00
2023-04-29T02:37:49.816Z,100.00
2023-04-29T02:42:41.570Z,100.00
2023-04-29T02:47:33.279Z,100.00
2023-04-29T02:52:25.000Z,100.00
2023-04-29T02:57:17.033Z,100.00
2023-04-29T03:02:08.876Z,100.00
2023-04-29T03:07:00.563Z,100.00
2023-04-29T03:11:54.337Z,100.00
2023-04-29T03:16:46.089Z,100.00
2023-04-29T03:21:37.846Z,100.00
2023-04-29T03:26:29.528Z,100.00
2023-04-29T03:31:23.124Z,100.00
2023-04-29T03:36:15.290Z,100.00
2023-04-29T03:41:07.508Z,100.00
2023-04-29T03:51:11.215Z,100.00
2023-04-29T03:56:03.236Z,100.00
2023-04-29T04:00:56.462Z,100.00
2023-04-29T04:05:48.444Z,100.00
2023-04-29T04:10:40.189Z,100.00
2023-04-29T04:15:31.883Z,100.00
2023-04-29T04:20:27.573Z,100.00
2023-04-29T04:30:24.945Z,100.00
2023-04-29T04:35:16.771Z,100.00
2023-04-29T04:40:11.181Z,100.00
2023-04-29T04:45:03.558Z,100.00
2023-04-29T04:49:55.450Z,100.00
2023-04-29T04:54:48.831Z,100.00
2023-04-29T04:59:41.944Z,100.00
2023-04-29T05:04:33.681Z,100.00
2023-04-29T05:09:26.779Z,100.00
2023-04-29T05:14:18.578Z,100.00
2023-04-29T05:19:10.357Z,100.00
2023-04-29T05:24:02.029Z,100.00
2023-04-29T05:28:55.313Z,100.00
2023-04-29T05:33:47.051Z,91.86
2023-04-29T05:38:38.864Z,85.72
2023-04-29T05:43:30.574Z,79.75
2023-04-29T05:48:22.326Z,77.68
2023-04-29T05:53:14.023Z,74.17
2023-04-29T05:58:05.738Z,72.22
2023-04-29T06:02:59.022Z,69.59
2023-04-29T06:07:51.939Z,66.49
2023-04-29T06:12:43.758Z,64.95
2023-04-29T06:17:44.803Z,63.51
2023-04-29T06:22:37.641Z,66.09
2023-04-29T06:27:29.784Z,70.79
2023-04-29T06:32:23.624Z,73.38
2023-04-29T06:42:21.982Z,70.98
2023-04-29T06:52:21.659Z,71.81
2023-04-29T06:57:16.684Z,72.66
2023-04-29T07:02:08.641Z,73.19
2023-04-29T07:07:05.555Z,73.84
2023-04-29T07:12:05.663Z,75.08
2023-04-29T07:17:06.403Z,75.84
2023-04-29T07:27:05.732Z,73.91
2023-04-29T07:52:29.538Z,72.44
2023-04-29T08:12:39.528Z,77.77
2023-04-29T08:17:31.502Z,79.10
2023-04-29T08:22:23.309Z,80.99
2023-04-29T08:37:28.939Z,79.89
2023-04-29T08:42:38.354Z,78.30
2023-04-29T08:47:31.912Z,76.20
2023-04-29T09:08:03.171Z,76.52
2023-04-29T09:12:58.424Z,74.90
2023-04-29T09:17:50.619Z,69.98
2023-04-29T09:22:58.352Z,67.48
2023-04-29T09:27:50.582Z,67.01
2023-04-29T09:37:54.073Z,64.28
2023-04-29T09:58:38.102Z,60.17
2023-04-29T10:08:50.366Z,59.62
2023-04-29T10:13:44.205Z,58.77
2023-04-29T11:07:00.338Z,47.31
2023-04-29T11:12:05.524Z,48.19
2023-04-29T11:59:18.245Z,46.12
2023-04-29T12:14:31.404Z,46.56
2023-04-29T12:19:24.652Z,44.08
2023-04-29T12:24:18.241Z,43.35
2023-04-29T12:49:48.181Z,52.44
2023-04-29T12:54:44.136Z,51.98
2023-04-29T12:59:36.125Z,58.35
2023-04-29T13:04:29.208Z,65.68
2023-04-29T13:35:05.238Z,72.31
2023-04-29T13:39:57.719Z,69.79
2023-04-29T14:05:47.300Z,70.84
2023-04-29T14:10:39.050Z,68.06
2023-04-29T14:15:31.135Z,70.14
2023-04-29T14:25:37.544Z,70.98
2023-04-29T15:32:22.342Z,58.52
2023-04-29T15:37:14.079Z,60.02
2023-04-29T16:03:30.486Z,53.66
2023-04-29T16:34:11.639Z,57.07
2023-04-29T16:39:04.641Z,56.92
2023-04-29T16:54:13.559Z,54.21
2023-04-29T16:59:05.803Z,55.20
2023-04-29T17:04:07.055Z,54.92
2023-04-29T17:09:01.755Z,56.29
2023-04-29T17:13:56.388Z,55.59
2023-04-29T17:23:55.924Z,55.33
2023-04-29T17:34:14.156Z,55.62
2023-04-29T17:44:13.768Z,60.48
2023-04-29T17:49:06.658Z,62.47
2023-04-29T17:53:59.914Z,63.74
2023-04-29T18:19:20.210Z,70.00
2023-04-29T18:34:24.818Z,74.72
2023-04-29T18:39:18.785Z,74.64
2023-04-29T19:45:36.910Z,81.72
2023-04-29T19:50:42.524Z,82.53
2023-04-29T20:00:41.110Z,81.97
2023-04-29T20:05:36.393Z,81.88
2023-04-29T20:10:30.110Z,82.47
2023-04-29T20:15:27.697Z,82.19
2023-04-29T20:20:22.352Z,80.76
2023-04-29T20:25:14.897Z,80.64
2023-04-29T20:35:22.160Z,80.99
2023-04-29T20:40:15.581Z,81.71
2023-04-29T20:45:08.971Z,81.96
2023-04-29T20:50:02.111Z,81.41
2023-04-29T20:54:54.195Z,81.54
2023-04-29T21:05:00.904Z,83.10
2023-04-29T21:09:54.757Z,83.75
2023-04-29T21:14:47.525Z,83.80
2023-04-29T21:19:39.851Z,83.55
2023-04-29T21:24:32.079Z,84.01
2023-04-29T21:29:24.940Z,83.43
2023-04-29T21:34:17.032Z,83.68
2023-04-29T21:44:26.602Z,84.75
2023-04-29T21:54:26.886Z,85.33
2023-04-29T21:59:19.798Z,85.55
2023-04-29T22:09:19.835Z,86.48
2023-04-29T22:14:12.691Z,88.08
2023-04-29T22:19:09.623Z,88.25
2023-04-29T22:29:18.192Z,89.62
2023-04-29T22:44:31.540Z,88.86
2023-04-29T22:54:35.577Z,90.76
2023-04-29T22:59:28.314Z,90.90
2023-04-29T23:14:37.178Z,91.05
2023-04-29T23:24:44.536Z,91.46
2023-04-29T23:29:38.351Z,91.58
2023-04-29T23:34:35.921Z,90.95
2023-04-29T23:44:36.798Z,90.83
2023-04-29T23:49:29.318Z,90.94
2023-04-29T23:59:31.833Z,92.14
